PHENX84 YGLB-YXGH
Flight info
| Callsign | PHENX84 |
|---|---|
| Flight time | 0h -7m |
| Altitude | 5000 |
| Route | DCT |
| Aircraft | EC45/L-SDFGRY/C |
Departure
| Time | 2026-05-06 11:35 |
|---|---|
| Airport | Goulburn Airport (YGLB) |
Arrival
| Time | 2026-05-06 11:27 |
|---|---|
| Airport | Goulburn Hospital Helipad (YXGH) |
| Time | Latitude | Longitude | Altitude | Speed | Heading |
|---|---|---|---|---|---|
| 2026-05-06 11:27 | -34.80619 | 149.73323 | 2117 ft | 0 kts | 119° |
| 2026-05-06 11:32 | -34.80618 | 149.73327 | 2116 ft | 3 kts | 123° |
| 2026-05-06 11:32 | -34.80621 | 149.73330 | 2120 ft | 3 kts | 196° |
| 2026-05-06 11:33 | -34.80635 | 149.73305 | 2125 ft | 4 kts | 196° |
| 2026-05-06 11:33 | -34.80653 | 149.73303 | 2127 ft | 4 kts | 196° |
| 2026-05-06 11:33 | -34.80666 | 149.73315 | 2127 ft | 0 kts | 195° |
| 2026-05-06 11:33 | -34.80666 | 149.73318 | 2127 ft | 0 kts | 195° |
| 2026-05-06 11:34 | -34.80665 | 149.73315 | 2129 ft | 1 kts | 196° |
| 2026-05-06 11:34 | -34.80754 | 149.73277 | 2228 ft | 34 kts | 197° |
| 2026-05-06 11:34 | -34.81086 | 149.73415 | 2470 ft | 70 kts | 165° |
| 2026-05-06 11:34 | -34.81314 | 149.74042 | 2737 ft | 85 kts | 91° |
| 2026-05-06 11:35 | -34.81260 | 149.74776 | 2882 ft | 90 kts | 82° |
| 2026-05-06 11:35 | -34.81211 | 149.75516 | 2865 ft | 92 kts | 82° |
| 2026-05-06 11:35 | -34.81151 | 149.76356 | 2959 ft | 99 kts | 82° |
| 2026-05-06 11:35 | -34.81089 | 149.77243 | 2951 ft | 116 kts | 82° |
| 2026-05-06 11:36 | -34.81018 | 149.78252 | 2990 ft | 122 kts | 82° |
| 2026-05-06 11:36 | -34.80951 | 149.79262 | 2995 ft | 120 kts | 82° |
| 2026-05-06 11:36 | -34.80892 | 149.80287 | 2987 ft | 122 kts | 82° |
| 2026-05-06 11:36 | -34.80839 | 149.81329 | 2988 ft | 124 kts | 83° |
| 2026-05-06 11:37 | -34.80791 | 149.82376 | 2974 ft | 124 kts | 85° |
| 2026-05-06 11:37 | -34.80764 | 149.83432 | 3017 ft | 126 kts | 86° |
| 2026-05-06 11:37 | -34.80784 | 149.84505 | 2989 ft | 128 kts | 92° |
| 2026-05-06 11:37 | -34.80882 | 149.85589 | 2931 ft | 129 kts | 98° |
| 2026-05-06 11:38 | -34.81032 | 149.86670 | 2894 ft | 130 kts | 101° |
| 2026-05-06 11:38 | -34.81196 | 149.87754 | 2912 ft | 131 kts | 100° |
| 2026-05-06 11:38 | -34.81301 | 149.88864 | 2974 ft | 130 kts | 93° |
| 2026-05-06 11:38 | -34.81335 | 149.89954 | 3041 ft | 128 kts | 89° |
| 2026-05-06 11:39 | -34.81304 | 149.91029 | 3138 ft | 126 kts | 83° |
| 2026-05-06 11:39 | -34.81198 | 149.92086 | 3162 ft | 126 kts | 75° |
| 2026-05-06 11:39 | -34.81012 | 149.93124 | 3235 ft | 126 kts | 68° |
| 2026-05-06 11:39 | -34.80746 | 149.94145 | 3327 ft | 128 kts | 63° |
| 2026-05-06 11:40 | -34.80534 | 149.95269 | 3096 ft | 146 kts | 80° |
| 2026-05-06 11:40 | -34.80645 | 149.96471 | 2956 ft | 137 kts | 111° |
| 2026-05-06 11:40 | -34.80920 | 149.97544 | 2818 ft | 132 kts | 97° |
| 2026-05-06 11:40 | -34.80890 | 149.98599 | 2693 ft | 117 kts | 69° |
| 2026-05-06 11:41 | -34.80695 | 149.99368 | 2690 ft | 84 kts | 68° |
| 2026-05-06 11:41 | -34.80589 | 150.00068 | 2455 ft | 85 kts | 90° |
| 2026-05-06 11:41 | -34.80620 | 150.00475 | 2280 ft | 23 kts | 121° |
| 2026-05-06 11:41 | -34.80579 | 150.00607 | 2077 ft | 6 kts | 160° |
| 2026-05-06 11:42 | -34.80587 | 150.00645 | 2210 ft | 5 kts | 189° |
| 2026-05-06 11:42 | -34.80588 | 150.00679 | 2208 ft | 5 kts | 283° |
| 2026-05-06 11:42 | -34.80608 | 150.00610 | 2158 ft | 27 kts | 275° |
| 2026-05-06 11:42 | -34.80730 | 150.00421 | 2127 ft | 25 kts | 263° |
| 2026-05-06 11:43 | -34.80737 | 150.00308 | 2136 ft | 18 kts | 43° |
| 2026-05-06 11:43 | -34.80664 | 150.00550 | 2117 ft | 43 kts | 149° |
| 2026-05-06 11:43 | -34.80760 | 150.00645 | 1860 ft | 3 kts | 165° |
| 2026-05-06 11:44 | -34.80791 | 150.00666 | 1817 ft | 1 kts | 163° |
| 2026-05-06 11:44 | -34.80798 | 150.00663 | 1800 ft | 1 kts | 163° |
| 2026-05-06 11:44 | -34.80798 | 150.00662 | 1798 ft | 0 kts | 159° |
| 2026-05-06 11:52 | -34.80798 | 150.00666 | 1801 ft | 1 kts | 159° |
| 2026-05-06 11:52 | -34.80796 | 150.00666 | 1817 ft | 2 kts | 161° |
| 2026-05-06 11:52 | -34.80780 | 150.00656 | 2019 ft | 4 kts | 161° |
| 2026-05-06 11:52 | -34.80751 | 150.00641 | 2177 ft | 1 kts | 163° |
| 2026-05-06 11:53 | -34.80905 | 150.00672 | 2198 ft | 52 kts | 170° |
| 2026-05-06 11:53 | -34.81282 | 150.00504 | 2291 ft | 69 kts | 253° |
| 2026-05-06 11:53 | -34.81159 | 149.99967 | 2500 ft | 64 kts | 288° |
| 2026-05-06 11:53 | -34.81009 | 149.99502 | 2781 ft | 58 kts | 287° |
| 2026-05-06 11:54 | -34.80870 | 149.99079 | 2898 ft | 50 kts | 287° |
| 2026-05-06 11:54 | -34.80722 | 149.98614 | 2926 ft | 74 kts | 289° |
| 2026-05-06 11:54 | -34.80534 | 149.97951 | 3008 ft | 83 kts | 285° |
| 2026-05-06 11:54 | -34.80351 | 149.97303 | 2989 ft | 81 kts | 286° |
| 2026-05-06 11:55 | -34.80171 | 149.96651 | 2991 ft | 81 kts | 286° |
| 2026-05-06 11:55 | -34.79992 | 149.96002 | 2986 ft | 81 kts | 286° |
| 2026-05-06 11:55 | -34.79812 | 149.95349 | 2985 ft | 81 kts | 286° |
| 2026-05-06 11:55 | -34.79633 | 149.94698 | 2988 ft | 81 kts | 286° |
| 2026-05-06 11:56 | -34.79453 | 149.94046 | 2996 ft | 81 kts | 286° |
| 2026-05-06 11:56 | -34.79274 | 149.93395 | 2998 ft | 81 kts | 286° |
| 2026-05-06 11:56 | -34.79095 | 149.92746 | 2990 ft | 82 kts | 286° |
| 2026-05-06 11:56 | -34.78914 | 149.92093 | 2997 ft | 81 kts | 286° |
| 2026-05-06 11:57 | -34.78730 | 149.91430 | 3021 ft | 82 kts | 285° |
| 2026-05-06 11:57 | -34.78560 | 149.90785 | 3001 ft | 80 kts | 285° |
| 2026-05-06 11:57 | -34.78399 | 149.90143 | 2997 ft | 80 kts | 285° |
| 2026-05-06 11:57 | -34.78228 | 149.89482 | 3004 ft | 81 kts | 284° |
| 2026-05-06 11:58 | -34.78062 | 149.88839 | 3002 ft | 80 kts | 285° |
| 2026-05-06 11:58 | -34.77910 | 149.88156 | 2945 ft | 88 kts | 283° |
| 2026-05-06 11:58 | -34.77782 | 149.87417 | 2982 ft | 90 kts | 280° |
| 2026-05-06 11:58 | -34.77695 | 149.86678 | 2995 ft | 86 kts | 278° |
| 2026-05-06 11:59 | -34.77626 | 149.85962 | 2991 ft | 85 kts | 278° |
| 2026-05-06 11:59 | -34.77553 | 149.85211 | 2763 ft | 95 kts | 284° |
| 2026-05-06 11:59 | -34.77407 | 149.84410 | 2691 ft | 100 kts | 281° |
| 2026-05-06 11:59 | -34.77287 | 149.83619 | 2791 ft | 92 kts | 277° |
| 2026-05-06 12:00 | -34.77255 | 149.82861 | 2772 ft | 81 kts | 282° |
| 2026-05-06 12:00 | -34.77180 | 149.82273 | 2883 ft | 75 kts | 282° |
| 2026-05-06 12:00 | -34.77085 | 149.81550 | 2745 ft | 91 kts | 274° |
| 2026-05-06 12:00 | -34.77067 | 149.80751 | 2717 ft | 95 kts | 275° |
| 2026-05-06 12:01 | -34.76994 | 149.79942 | 2726 ft | 97 kts | 277° |
| 2026-05-06 12:01 | -34.76963 | 149.79088 | 2619 ft | 101 kts | 273° |
| 2026-05-06 12:01 | -34.76978 | 149.78300 | 2826 ft | 86 kts | 270° |
| 2026-05-06 12:01 | -34.77030 | 149.77544 | 2780 ft | 96 kts | 268° |
| 2026-05-06 12:02 | -34.77075 | 149.76708 | 2674 ft | 102 kts | 268° |
| 2026-05-06 12:02 | -34.77114 | 149.75832 | 2618 ft | 101 kts | 269° |
| 2026-05-06 12:02 | -34.77089 | 149.75011 | 2637 ft | 96 kts | 274° |
| 2026-05-06 12:02 | -34.77129 | 149.74202 | 2616 ft | 95 kts | 264° |
| 2026-05-06 12:03 | -34.77147 | 149.73427 | 2485 ft | 91 kts | 296° |
| 2026-05-06 12:03 | -34.76890 | 149.72782 | 2394 ft | 82 kts | 279° |
| 2026-05-06 12:03 | -34.76758 | 149.72286 | 2333 ft | 32 kts | 299° |
| 2026-05-06 12:03 | -34.76683 | 149.72240 | 2328 ft | 3 kts | 262° |
| 2026-05-06 12:04 | -34.76686 | 149.72241 | 2329 ft | 1 kts | 262° |
| 2026-05-06 12:04 | -34.76687 | 149.72242 | 2330 ft | 0 kts | 262° |
| 2026-05-06 12:04 | -34.76687 | 149.72241 | 2329 ft | 0 kts | 262° |
| 2026-05-06 12:04 | -34.76687 | 149.72242 | 2330 ft | 0 kts | 263° |
| 2026-05-06 12:05 | -34.76686 | 149.72241 | 2331 ft | 0 kts | 263° |
| 2026-05-06 12:05 | -34.76687 | 149.72234 | 2331 ft | 8 kts | 263° |
| 2026-05-06 12:05 | -34.76744 | 149.72041 | 2415 ft | 40 kts | 247° |
| 2026-05-06 12:06 | -34.77112 | 149.72041 | 2326 ft | 79 kts | 126° |
| 2026-05-06 12:06 | -34.77098 | 149.72619 | 2355 ft | 67 kts | 67° |
| 2026-05-06 12:06 | -34.77005 | 149.72875 | 2325 ft | 21 kts | 34° |
| 2026-05-06 12:06 | -34.76987 | 149.72826 | 2330 ft | 16 kts | 269° |
| 2026-05-06 12:07 | -34.77028 | 149.72558 | 2315 ft | 39 kts | 311° |
| 2026-05-06 12:07 | -34.76922 | 149.72722 | 2417 ft | 16 kts | 109° |
| 2026-05-06 12:07 | -34.76940 | 149.72754 | 2422 ft | 0 kts | 109° |
| 2026-05-06 12:07 | -34.76938 | 149.72754 | 2425 ft | 0 kts | 109° |
| 2026-05-06 12:08 | -34.76939 | 149.72754 | 2429 ft | 0 kts | 109° |
| 2026-05-06 12:08 | -34.76937 | 149.72755 | 2436 ft | 1 kts | 219° |
| 2026-05-06 12:08 | -34.76939 | 149.72754 | 2437 ft | 1 kts | 218° |
| 2026-05-06 12:09 | -34.76941 | 149.72756 | 2439 ft | 0 kts | 218° |
| 2026-05-06 12:09 | -34.76940 | 149.72754 | 2441 ft | 0 kts | 218° |
| 2026-05-06 12:10 | -34.76949 | 149.72673 | 2373 ft | 14 kts | 276° |
| 2026-05-06 12:10 | -34.76921 | 149.72593 | 2253 ft | 7 kts | 279° |
| 2026-05-06 12:10 | -34.76907 | 149.72565 | 2237 ft | 4 kts | 279° |
| 2026-05-06 12:11 | -34.76908 | 149.72563 | 2228 ft | 2 kts | 278° |
| 2026-05-06 12:11 | -34.76907 | 149.72562 | 2159 ft | 1 kts | 278° |
| 2026-05-06 12:11 | -34.76910 | 149.72555 | 2147 ft | 1 kts | 278° |
| 2026-05-06 12:11 | -34.76910 | 149.72554 | 2147 ft | 0 kts | 269° |
| 2026-05-06 12:15 | -34.76909 | 149.72554 | 2147 ft | 0 kts | 259° |
| 2026-05-06 12:16 | -34.76906 | 149.72540 | 2173 ft | 4 kts | 256° |
| 2026-05-06 12:16 | -34.76904 | 149.72460 | 2379 ft | 33 kts | 258° |
| 2026-05-06 12:16 | -34.76834 | 149.71931 | 2359 ft | 80 kts | 300° |
| 2026-05-06 12:17 | -34.76311 | 149.71626 | 2509 ft | 86 kts | 331° |
| 2026-05-06 12:17 | -34.75733 | 149.71355 | 2424 ft | 100 kts | 316° |
| 2026-05-06 12:17 | -34.75158 | 149.70970 | 2351 ft | 86 kts | 346° |
| 2026-05-06 12:17 | -34.74776 | 149.71091 | 2329 ft | 31 kts | 55° |
| 2026-05-06 12:18 | -34.74769 | 149.71190 | 2247 ft | 2 kts | 109° |
| 2026-05-06 12:18 | -34.74778 | 149.71202 | 2235 ft | 2 kts | 109° |
| 2026-05-06 12:18 | -34.74795 | 149.71228 | 2188 ft | 5 kts | 112° |
| 2026-05-06 12:18 | -34.74804 | 149.71226 | 2186 ft | 2 kts | 111° |
| 2026-05-06 12:19 | -34.74801 | 149.71229 | 2168 ft | 1 kts | 111° |